sensor_id;sensor_type;location;lat;lon;timestamp;P1;durP1;ratioP1;P2;durP2;ratioP2
53521;SDS011;39398;48.382;9.802;2023-03-01T00:01:47;23.70;;;11.68;;
53521;SDS011;39398;48.382;9.802;2023-03-01T00:06:48;26.58;;;13.18;;
53521;SDS011;39398;48.382;9.802;2023-03-01T00:11:51;25.77;;;12.65;;
53521;SDS011;39398;48.382;9.802;2023-03-01T00:16:53;29.65;;;16.20;;
53521;SDS011;39398;48.382;9.802;2023-03-01T00:21:55;21.95;;;10.82;;
53521;SDS011;39398;48.382;9.802;2023-03-01T00:26:58;32.15;;;16.77;;
53521;SDS011;39398;48.382;9.802;2023-03-01T00:31:59;32.95;;;16.15;;
53521;SDS011;39398;48.382;9.802;2023-03-01T00:37:01;32.78;;;15.23;;
53521;SDS011;39398;48.382;9.802;2023-03-01T00:42:04;24.05;;;13.15;;
53521;SDS011;39398;48.382;9.802;2023-03-01T00:47:05;22.77;;;11.70;;
53521;SDS011;39398;48.382;9.802;2023-03-01T00:52:07;27.73;;;13.57;;
53521;SDS011;39398;48.382;9.802;2023-03-01T00:57:10;33.53;;;14.57;;
53521;SDS011;39398;48.382;9.802;2023-03-01T01:02:11;20.25;;;10.82;;
53521;SDS011;39398;48.382;9.802;2023-03-01T01:07:13;31.23;;;13.55;;
53521;SDS011;39398;48.382;9.802;2023-03-01T01:12:16;30.73;;;15.48;;
53521;SDS011;39398;48.382;9.802;2023-03-01T01:17:18;31.27;;;16.98;;
53521;SDS011;39398;48.382;9.802;2023-03-01T01:22:20;29.00;;;13.50;;
53521;SDS011;39398;48.382;9.802;2023-03-01T01:27:22;30.30;;;17.25;;
53521;SDS011;39398;48.382;9.802;2023-03-01T01:32:24;33.00;;;14.32;;
53521;SDS011;39398;48.382;9.802;2023-03-01T01:37:27;30.35;;;13.85;;
53521;SDS011;39398;48.382;9.802;2023-03-01T01:42:30;29.85;;;16.25;;
53521;SDS011;39398;48.382;9.802;2023-03-01T01:47:31;26.27;;;13.38;;
53521;SDS011;39398;48.382;9.802;2023-03-01T01:52:33;32.13;;;14.65;;
53521;SDS011;39398;48.382;9.802;2023-03-01T01:57:40;27.17;;;13.48;;
53521;SDS011;39398;48.382;9.802;2023-03-01T02:02:44;41.67;;;20.98;;
53521;SDS011;39398;48.382;9.802;2023-03-01T02:07:50;31.17;;;15.60;;
53521;SDS011;39398;48.382;9.802;2023-03-01T02:12:54;24.05;;;14.90;;
53521;SDS011;39398;48.382;9.802;2023-03-01T02:17:56;31.77;;;15.25;;
53521;SDS011;39398;48.382;9.802;2023-03-01T02:22:58;41.08;;;20.38;;
53521;SDS011;39398;48.382;9.802;2023-03-01T02:28:04;32.47;;;14.50;;
53521;SDS011;39398;48.382;9.802;2023-03-01T02:33:13;33.53;;;15.27;;
53521;SDS011;39398;48.382;9.802;2023-03-01T02:38:14;43.85;;;20.67;;
53521;SDS011;39398;48.382;9.802;2023-03-01T02:43:16;36.13;;;18.23;;
53521;SDS011;39398;48.382;9.802;2023-03-01T02:48:21;38.33;;;20.17;;
53521;SDS011;39398;48.382;9.802;2023-03-01T02:53:25;34.13;;;18.30;;
53521;SDS011;39398;48.382;9.802;2023-03-01T02:58:30;43.80;;;23.60;;
53521;SDS011;39398;48.382;9.802;2023-03-01T03:03:33;41.55;;;22.77;;
53521;SDS011;39398;48.382;9.802;2023-03-01T03:08:35;31.17;;;16.77;;
53521;SDS011;39398;48.382;9.802;2023-03-01T03:13:37;41.33;;;19.80;;
53521;SDS011;39398;48.382;9.802;2023-03-01T03:18:40;35.15;;;19.88;;
53521;SDS011;39398;48.382;9.802;2023-03-01T03:23:41;26.83;;;14.05;;
53521;SDS011;39398;48.382;9.802;2023-03-01T03:28:43;46.90;;;23.55;;
53521;SDS011;39398;48.382;9.802;2023-03-01T03:33:46;36.40;;;18.88;;
53521;SDS011;39398;48.382;9.802;2023-03-01T03:38:47;38.45;;;21.75;;
53521;SDS011;39398;48.382;9.802;2023-03-01T03:43:49;41.35;;;20.10;;
53521;SDS011;39398;48.382;9.802;2023-03-01T03:48:52;39.78;;;19.20;;
53521;SDS011;39398;48.382;9.802;2023-03-01T03:53:54;41.13;;;22.55;;
53521;SDS011;39398;48.382;9.802;2023-03-01T03:58:55;32.13;;;16.58;;
53521;SDS011;39398;48.382;9.802;2023-03-01T04:03:58;35.30;;;17.58;;
53521;SDS011;39398;48.382;9.802;2023-03-01T04:08:59;40.58;;;24.38;;
53521;SDS011;39398;48.382;9.802;2023-03-01T04:14:01;30.60;;;15.77;;
53521;SDS011;39398;48.382;9.802;2023-03-01T04:19:04;38.55;;;19.08;;
53521;SDS011;39398;48.382;9.802;2023-03-01T04:24:06;33.83;;;17.10;;
53521;SDS011;39398;48.382;9.802;2023-03-01T04:29:08;38.25;;;20.23;;
53521;SDS011;39398;48.382;9.802;2023-03-01T04:34:11;38.42;;;19.25;;
53521;SDS011;39398;48.382;9.802;2023-03-01T04:39:12;38.10;;;19.42;;
53521;SDS011;39398;48.382;9.802;2023-03-01T04:44:14;42.67;;;20.73;;
53521;SDS011;39398;48.382;9.802;2023-03-01T04:49:16;37.60;;;19.27;;
53521;SDS011;39398;48.382;9.802;2023-03-01T04:54:18;30.83;;;16.05;;
53521;SDS011;39398;48.382;9.802;2023-03-01T04:59:20;36.53;;;18.92;;
53521;SDS011;39398;48.382;9.802;2023-03-01T05:04:23;34.03;;;16.70;;
53521;SDS011;39398;48.382;9.802;2023-03-01T05:09:25;31.95;;;15.30;;
53521;SDS011;39398;48.382;9.802;2023-03-01T05:14:27;34.72;;;16.98;;
53521;SDS011;39398;48.382;9.802;2023-03-01T05:19:30;35.25;;;18.92;;
53521;SDS011;39398;48.382;9.802;2023-03-01T05:24:32;31.00;;;17.75;;
53521;SDS011;39398;48.382;9.802;2023-03-01T05:29:34;37.97;;;21.40;;
53521;SDS011;39398;48.382;9.802;2023-03-01T05:34:37;42.17;;;20.80;;
53521;SDS011;39398;48.382;9.802;2023-03-01T05:39:39;29.45;;;15.27;;
53521;SDS011;39398;48.382;9.802;2023-03-01T05:44:40;34.40;;;16.88;;
53521;SDS011;39398;48.382;9.802;2023-03-01T05:49:43;35.38;;;18.90;;
53521;SDS011;39398;48.382;9.802;2023-03-01T05:54:45;33.40;;;14.75;;
53521;SDS011;39398;48.382;9.802;2023-03-01T05:59:46;35.70;;;19.52;;
53521;SDS011;39398;48.382;9.802;2023-03-01T06:04:49;31.00;;;17.50;;
53521;SDS011;39398;48.382;9.802;2023-03-01T06:09:51;37.35;;;18.55;;
53521;SDS011;39398;48.382;9.802;2023-03-01T06:14:53;40.20;;;21.48;;
53521;SDS011;39398;48.382;9.802;2023-03-01T06:19:55;34.35;;;16.83;;
53521;SDS011;39398;48.382;9.802;2023-03-01T06:24:57;36.28;;;20.25;;
53521;SDS011;39398;48.382;9.802;2023-03-01T06:29:58;43.90;;;21.95;;
53521;SDS011;39398;48.382;9.802;2023-03-01T06:35:02;34.78;;;19.10;;
53521;SDS011;39398;48.382;9.802;2023-03-01T06:40:04;46.95;;;25.30;;
53521;SDS011;39398;48.382;9.802;2023-03-01T06:45:07;37.33;;;23.40;;
53521;SDS011;39398;48.382;9.802;2023-03-01T06:50:12;42.95;;;19.88;;
53521;SDS011;39398;48.382;9.802;2023-03-01T06:55:14;41.50;;;21.80;;
53521;SDS011;39398;48.382;9.802;2023-03-01T07:00:16;39.28;;;18.63;;
53521;SDS011;39398;48.382;9.802;2023-03-01T07:05:20;41.45;;;22.27;;
53521;SDS011;39398;48.382;9.802;2023-03-01T07:10:21;38.00;;;18.73;;
53521;SDS011;39398;48.382;9.802;2023-03-01T07:15:23;46.38;;;23.55;;
53521;SDS011;39398;48.382;9.802;2023-03-01T07:20:27;36.35;;;17.48;;
53521;SDS011;39398;48.382;9.802;2023-03-01T07:25:29;42.38;;;21.65;;
53521;SDS011;39398;48.382;9.802;2023-03-01T07:30:30;34.75;;;17.02;;
53521;SDS011;39398;48.382;9.802;2023-03-01T07:35:33;33.22;;;16.02;;
53521;SDS011;39398;48.382;9.802;2023-03-01T07:40:35;35.10;;;19.50;;
53521;SDS011;39398;48.382;9.802;2023-03-01T07:45:37;34.80;;;17.38;;
53521;SDS011;39398;48.382;9.802;2023-03-01T07:50:40;41.80;;;20.38;;
53521;SDS011;39398;48.382;9.802;2023-03-01T07:55:41;38.75;;;19.70;;
53521;SDS011;39398;48.382;9.802;2023-03-01T08:00:43;38.80;;;20.02;;
53521;SDS011;39398;48.382;9.802;2023-03-01T08:05:46;40.60;;;22.17;;
53521;SDS011;39398;48.382;9.802;2023-03-01T08:10:47;35.83;;;20.23;;
53521;SDS011;39398;48.382;9.802;2023-03-01T08:15:49;37.92;;;19.10;;
53521;SDS011;39398;48.382;9.802;2023-03-01T08:20:52;36.45;;;22.30;;
53521;SDS011;39398;48.382;9.802;2023-03-01T08:25:54;44.03;;;22.38;;
53521;SDS011;39398;48.382;9.802;2023-03-01T08:30:55;36.92;;;19.25;;
53521;SDS011;39398;48.382;9.802;2023-03-01T08:36:05;35.95;;;20.80;;
53521;SDS011;39398;48.382;9.802;2023-03-01T08:41:07;37.78;;;20.38;;
53521;SDS011;39398;48.382;9.802;2023-03-01T08:46:09;37.95;;;20.20;;
53521;SDS011;39398;48.382;9.802;2023-03-01T08:51:12;39.05;;;18.25;;
53521;SDS011;39398;48.382;9.802;2023-03-01T08:56:16;39.20;;;21.77;;
53521;SDS011;39398;48.382;9.802;2023-03-01T09:01:19;42.53;;;19.20;;
53521;SDS011;39398;48.382;9.802;2023-03-01T09:06:23;37.50;;;18.92;;
53521;SDS011;39398;48.382;9.802;2023-03-01T09:11:24;44.10;;;22.63;;
53521;SDS011;39398;48.382;9.802;2023-03-01T09:16:26;42.17;;;22.85;;
53521;SDS011;39398;48.382;9.802;2023-03-01T09:21:29;44.03;;;24.83;;
53521;SDS011;39398;48.382;9.802;2023-03-01T09:26:40;38.42;;;20.20;;
53521;SDS011;39398;48.382;9.802;2023-03-01T09:31:42;41.20;;;20.52;;
53521;SDS011;39398;48.382;9.802;2023-03-01T09:36:45;44.30;;;22.40;;
53521;SDS011;39398;48.382;9.802;2023-03-01T09:41:52;44.47;;;23.98;;
53521;SDS011;39398;48.382;9.802;2023-03-01T09:46:59;41.47;;;21.85;;
53521;SDS011;39398;48.382;9.802;2023-03-01T09:52:03;44.92;;;20.60;;
53521;SDS011;39398;48.382;9.802;2023-03-01T09:57:18;40.05;;;21.20;;
53521;SDS011;39398;48.382;9.802;2023-03-01T10:02:23;47.88;;;26.95;;
53521;SDS011;39398;48.382;9.802;2023-03-01T10:07:32;41.45;;;22.70;;
53521;SDS011;39398;48.382;9.802;2023-03-01T10:12:43;50.33;;;25.77;;
53521;SDS011;39398;48.382;9.802;2023-03-01T10:17:48;43.85;;;21.67;;
53521;SDS011;39398;48.382;9.802;2023-03-01T10:22:54;40.55;;;22.85;;
53521;SDS011;39398;48.382;9.802;2023-03-01T10:27:59;45.92;;;24.25;;
53521;SDS011;39398;48.382;9.802;2023-03-01T10:33:08;37.95;;;20.83;;
53521;SDS011;39398;48.382;9.802;2023-03-01T10:38:19;43.05;;;26.63;;
53521;SDS011;39398;48.382;9.802;2023-03-01T10:43:21;41.50;;;25.45;;
53521;SDS011;39398;48.382;9.802;2023-03-01T10:48:24;43.83;;;26.13;;
53521;SDS011;39398;48.382;9.802;2023-03-01T10:53:29;46.05;;;26.15;;
53521;SDS011;39398;48.382;9.802;2023-03-01T10:58:34;44.70;;;23.33;;
53521;SDS011;39398;48.382;9.802;2023-03-01T11:03:37;40.15;;;24.08;;
53521;SDS011;39398;48.382;9.802;2023-03-01T11:08:41;41.88;;;25.42;;
53521;SDS011;39398;48.382;9.802;2023-03-01T11:13:49;42.78;;;25.33;;
53521;SDS011;39398;48.382;9.802;2023-03-01T11:18:57;42.30;;;24.70;;
53521;SDS011;39398;48.382;9.802;2023-03-01T11:24:02;43.08;;;24.85;;
53521;SDS011;39398;48.382;9.802;2023-03-01T11:29:12;40.42;;;25.40;;
53521;SDS011;39398;48.382;9.802;2023-03-01T11:34:23;40.60;;;23.90;;
53521;SDS011;39398;48.382;9.802;2023-03-01T11:39:39;43.83;;;26.67;;
53521;SDS011;39398;48.382;9.802;2023-03-01T11:44:46;39.88;;;20.15;;
53521;SDS011;39398;48.382;9.802;2023-03-01T11:50:02;41.90;;;24.10;;
53521;SDS011;39398;48.382;9.802;2023-03-01T11:55:17;39.45;;;24.00;;
53521;SDS011;39398;48.382;9.802;2023-03-01T12:00:32;34.10;;;16.60;;
53521;SDS011;39398;48.382;9.802;2023-03-01T12:05:50;38.22;;;22.05;;
53521;SDS011;39398;48.382;9.802;2023-03-01T12:11:15;36.53;;;21.20;;
53521;SDS011;39398;48.382;9.802;2023-03-01T12:16:32;34.40;;;18.35;;
53521;SDS011;39398;48.382;9.802;2023-03-01T12:21:58;29.55;;;15.98;;
53521;SDS011;39398;48.382;9.802;2023-03-01T12:27:15;36.20;;;21.08;;
53521;SDS011;39398;48.382;9.802;2023-03-01T12:32:33;38.00;;;18.10;;
53521;SDS011;39398;48.382;9.802;2023-03-01T12:37:47;31.83;;;18.30;;
53521;SDS011;39398;48.382;9.802;2023-03-01T12:43:01;43.58;;;19.75;;
53521;SDS011;39398;48.382;9.802;2023-03-01T12:48:20;44.47;;;27.60;;
53521;SDS011;39398;48.382;9.802;2023-03-01T12:53:36;34.03;;;19.98;;
53521;SDS011;39398;48.382;9.802;2023-03-01T12:58:46;40.33;;;23.65;;
53521;SDS011;39398;48.382;9.802;2023-03-01T13:04:02;33.00;;;19.17;;
53521;SDS011;39398;48.382;9.802;2023-03-01T13:09:18;21.88;;;12.45;;
53521;SDS011;39398;48.382;9.802;2023-03-01T13:14:36;35.67;;;21.23;;
53521;SDS011;39398;48.382;9.802;2023-03-01T13:19:49;36.75;;;20.17;;
53521;SDS011;39398;48.382;9.802;2023-03-01T13:25:01;37.60;;;18.70;;
53521;SDS011;39398;48.382;9.802;2023-03-01T13:35:49;33.05;;;21.70;;
53521;SDS011;39398;48.382;9.802;2023-03-01T13:40:57;41.10;;;24.08;;
53521;SDS011;39398;48.382;9.802;2023-03-01T13:46:01;34.88;;;18.25;;
53521;SDS011;39398;48.382;9.802;2023-03-01T13:51:09;37.67;;;18.52;;
53521;SDS011;39398;48.382;9.802;2023-03-01T13:56:13;36.58;;;17.33;;
53521;SDS011;39398;48.382;9.802;2023-03-01T14:01:27;33.47;;;15.73;;
53521;SDS011;39398;48.382;9.802;2023-03-01T14:06:32;34.45;;;19.40;;
53521;SDS011;39398;48.382;9.802;2023-03-01T14:11:41;29.30;;;15.80;;
53521;SDS011;39398;48.382;9.802;2023-03-01T14:17:01;31.23;;;16.42;;
53521;SDS011;39398;48.382;9.802;2023-03-01T14:22:16;32.40;;;17.85;;
53521;SDS011;39398;48.382;9.802;2023-03-01T14:27:21;32.22;;;17.83;;
53521;SDS011;39398;48.382;9.802;2023-03-01T14:32:29;31.20;;;16.95;;
53521;SDS011;39398;48.382;9.802;2023-03-01T14:37:32;32.03;;;17.20;;
53521;SDS011;39398;48.382;9.802;2023-03-01T14:42:36;34.00;;;16.30;;
53521;SDS011;39398;48.382;9.802;2023-03-01T14:47:39;32.50;;;15.35;;
53521;SDS011;39398;48.382;9.802;2023-03-01T14:52:45;34.25;;;16.73;;
53521;SDS011;39398;48.382;9.802;2023-03-01T14:57:49;28.33;;;14.68;;
53521;SDS011;39398;48.382;9.802;2023-03-01T15:02:55;28.48;;;15.73;;
53521;SDS011;39398;48.382;9.802;2023-03-01T15:07:58;33.28;;;15.52;;
53521;SDS011;39398;48.382;9.802;2023-03-01T15:13:11;28.35;;;17.00;;
53521;SDS011;39398;48.382;9.802;2023-03-01T15:18:16;26.10;;;13.38;;
53521;SDS011;39398;48.382;9.802;2023-03-01T15:23:21;34.53;;;20.60;;
53521;SDS011;39398;48.382;9.802;2023-03-01T15:28:25;29.88;;;15.43;;
53521;SDS011;39398;48.382;9.802;2023-03-01T15:33:33;35.28;;;19.23;;
53521;SDS011;39398;48.382;9.802;2023-03-01T15:38:36;32.70;;;17.55;;
53521;SDS011;39398;48.382;9.802;2023-03-01T15:43:51;27.30;;;15.45;;
53521;SDS011;39398;48.382;9.802;2023-03-01T15:48:55;27.35;;;13.77;;
53521;SDS011;39398;48.382;9.802;2023-03-01T15:54:00;29.20;;;13.23;;
53521;SDS011;39398;48.382;9.802;2023-03-01T15:59:04;29.15;;;13.38;;
53521;SDS011;39398;48.382;9.802;2023-03-01T16:04:08;27.85;;;14.88;;
53521;SDS011;39398;48.382;9.802;2023-03-01T16:09:10;30.17;;;15.38;;
53521;SDS011;39398;48.382;9.802;2023-03-01T16:14:11;29.25;;;14.68;;
53521;SDS011;39398;48.382;9.802;2023-03-01T16:19:14;25.15;;;13.52;;
53521;SDS011;39398;48.382;9.802;2023-03-01T16:24:16;25.08;;;12.60;;
53521;SDS011;39398;48.382;9.802;2023-03-01T16:29:18;23.83;;;13.77;;
53521;SDS011;39398;48.382;9.802;2023-03-01T16:34:21;27.88;;;13.38;;
53521;SDS011;39398;48.382;9.802;2023-03-01T16:39:23;26.33;;;14.60;;
53521;SDS011;39398;48.382;9.802;2023-03-01T16:44:24;31.42;;;14.43;;
53521;SDS011;39398;48.382;9.802;2023-03-01T16:49:27;25.75;;;13.07;;
53521;SDS011;39398;48.382;9.802;2023-03-01T16:54:28;24.48;;;13.82;;
53521;SDS011;39398;48.382;9.802;2023-03-01T16:59:30;27.23;;;14.48;;
53521;SDS011;39398;48.382;9.802;2023-03-01T17:04:33;30.83;;;13.85;;
53521;SDS011;39398;48.382;9.802;2023-03-01T17:09:35;22.00;;;11.60;;
53521;SDS011;39398;48.382;9.802;2023-03-01T17:14:37;28.00;;;13.00;;
53521;SDS011;39398;48.382;9.802;2023-03-01T17:19:40;22.35;;;13.20;;
53521;SDS011;39398;48.382;9.802;2023-03-01T17:24:42;24.73;;;11.73;;
53521;SDS011;39398;48.382;9.802;2023-03-01T17:29:44;31.35;;;14.00;;
53521;SDS011;39398;48.382;9.802;2023-03-01T17:34:47;21.67;;;10.85;;
53521;SDS011;39398;48.382;9.802;2023-03-01T17:39:48;27.15;;;12.07;;
53521;SDS011;39398;48.382;9.802;2023-03-01T17:44:50;26.05;;;13.15;;
53521;SDS011;39398;48.382;9.802;2023-03-01T17:49:53;26.23;;;12.93;;
53521;SDS011;39398;48.382;9.802;2023-03-01T17:54:55;28.20;;;12.35;;
53521;SDS011;39398;48.382;9.802;2023-03-01T17:59:56;25.10;;;13.20;;
53521;SDS011;39398;48.382;9.802;2023-03-01T18:04:59;25.02;;;11.70;;
53521;SDS011;39398;48.382;9.802;2023-03-01T18:10:01;29.73;;;15.35;;
53521;SDS011;39398;48.382;9.802;2023-03-01T18:15:03;29.15;;;15.68;;
53521;SDS011;39398;48.382;9.802;2023-03-01T18:20:08;29.52;;;13.10;;
53521;SDS011;39398;48.382;9.802;2023-03-01T18:25:10;30.90;;;13.77;;
53521;SDS011;39398;48.382;9.802;2023-03-01T18:30:12;21.35;;;10.95;;
53521;SDS011;39398;48.382;9.802;2023-03-01T18:35:16;22.73;;;12.23;;
53521;SDS011;39398;48.382;9.802;2023-03-01T18:40:17;25.55;;;12.73;;
53521;SDS011;39398;48.382;9.802;2023-03-01T18:45:19;26.92;;;14.25;;
53521;SDS011;39398;48.382;9.802;2023-03-01T18:50:22;26.75;;;12.35;;
53521;SDS011;39398;48.382;9.802;2023-03-01T18:55:24;26.75;;;14.00;;
53521;SDS011;39398;48.382;9.802;2023-03-01T19:00:25;27.42;;;14.45;;
53521;SDS011;39398;48.382;9.802;2023-03-01T19:05:28;28.30;;;14.98;;
53521;SDS011;39398;48.382;9.802;2023-03-01T19:10:30;32.13;;;16.35;;
53521;SDS011;39398;48.382;9.802;2023-03-01T19:15:32;29.23;;;16.15;;
53521;SDS011;39398;48.382;9.802;2023-03-01T19:20:34;29.42;;;16.83;;
53521;SDS011;39398;48.382;9.802;2023-03-01T19:25:39;25.02;;;12.80;;
53521;SDS011;39398;48.382;9.802;2023-03-01T19:30:40;27.33;;;12.82;;
53521;SDS011;39398;48.382;9.802;2023-03-01T19:35:43;24.05;;;13.45;;
53521;SDS011;39398;48.382;9.802;2023-03-01T19:40:45;30.15;;;17.02;;
53521;SDS011;39398;48.382;9.802;2023-03-01T19:45:49;31.10;;;15.82;;
53521;SDS011;39398;48.382;9.802;2023-03-01T19:50:53;29.85;;;14.82;;
53521;SDS011;39398;48.382;9.802;2023-03-01T19:55:57;29.63;;;13.35;;
53521;SDS011;39398;48.382;9.802;2023-03-01T20:00:59;30.30;;;15.88;;
53521;SDS011;39398;48.382;9.802;2023-03-01T20:06:07;31.02;;;18.13;;
53521;SDS011;39398;48.382;9.802;2023-03-01T20:11:11;37.65;;;20.55;;
53521;SDS011;39398;48.382;9.802;2023-03-01T20:16:14;39.92;;;21.80;;
53521;SDS011;39398;48.382;9.802;2023-03-01T20:21:18;39.72;;;21.67;;
53521;SDS011;39398;48.382;9.802;2023-03-01T20:26:25;33.08;;;17.13;;
53521;SDS011;39398;48.382;9.802;2023-03-01T20:31:27;40.05;;;22.83;;
53521;SDS011;39398;48.382;9.802;2023-03-01T20:36:29;35.95;;;20.50;;
53521;SDS011;39398;48.382;9.802;2023-03-01T20:41:31;37.88;;;18.98;;
53521;SDS011;39398;48.382;9.802;2023-03-01T20:46:33;39.55;;;19.00;;
53521;SDS011;39398;48.382;9.802;2023-03-01T20:51:38;37.70;;;20.27;;
53521;SDS011;39398;48.382;9.802;2023-03-01T20:56:39;40.78;;;20.23;;
53521;SDS011;39398;48.382;9.802;2023-03-01T21:01:41;33.30;;;18.38;;
53521;SDS011;39398;48.382;9.802;2023-03-01T21:06:44;42.05;;;20.92;;
53521;SDS011;39398;48.382;9.802;2023-03-01T21:11:47;43.92;;;23.80;;
53521;SDS011;39398;48.382;9.802;2023-03-01T21:16:49;40.97;;;23.73;;
53521;SDS011;39398;48.382;9.802;2023-03-01T21:21:52;37.05;;;21.17;;
53521;SDS011;39398;48.382;9.802;2023-03-01T21:26:54;35.10;;;16.20;;
53521;SDS011;39398;48.382;9.802;2023-03-01T21:31:55;42.85;;;24.33;;
53521;SDS011;39398;48.382;9.802;2023-03-01T21:36:58;41.60;;;20.35;;
53521;SDS011;39398;48.382;9.802;2023-03-01T21:42:01;43.05;;;23.42;;
53521;SDS011;39398;48.382;9.802;2023-03-01T21:47:04;44.40;;;24.27;;
53521;SDS011;39398;48.382;9.802;2023-03-01T21:52:07;30.35;;;16.38;;
53521;SDS011;39398;48.382;9.802;2023-03-01T21:57:08;40.35;;;20.08;;
53521;SDS011;39398;48.382;9.802;2023-03-01T22:02:10;33.45;;;19.17;;
53521;SDS011;39398;48.382;9.802;2023-03-01T22:07:13;42.72;;;19.85;;
53521;SDS011;39398;48.382;9.802;2023-03-01T22:12:15;42.08;;;24.88;;
53521;SDS011;39398;48.382;9.802;2023-03-01T22:17:16;31.17;;;17.05;;
53521;SDS011;39398;48.382;9.802;2023-03-01T22:22:19;39.80;;;21.63;;
53521;SDS011;39398;48.382;9.802;2023-03-01T22:27:21;40.30;;;21.13;;
53521;SDS011;39398;48.382;9.802;2023-03-01T22:32:22;43.92;;;23.52;;
53521;SDS011;39398;48.382;9.802;2023-03-01T22:37:25;37.88;;;22.60;;
53521;SDS011;39398;48.382;9.802;2023-03-01T22:42:27;43.25;;;23.80;;
53521;SDS011;39398;48.382;9.802;2023-03-01T22:47:28;42.50;;;22.67;;
53521;SDS011;39398;48.382;9.802;2023-03-01T22:52:31;44.67;;;27.05;;
53521;SDS011;39398;48.382;9.802;2023-03-01T22:57:33;38.22;;;21.08;;
53521;SDS011;39398;48.382;9.802;2023-03-01T23:02:34;40.42;;;20.83;;
53521;SDS011;39398;48.382;9.802;2023-03-01T23:07:37;38.63;;;19.63;;
53521;SDS011;39398;48.382;9.802;2023-03-01T23:12:39;38.72;;;21.85;;
53521;SDS011;39398;48.382;9.802;2023-03-01T23:17:41;43.22;;;23.17;;
53521;SDS011;39398;48.382;9.802;2023-03-01T23:22:44;41.72;;;22.58;;
53521;SDS011;39398;48.382;9.802;2023-03-01T23:27:45;42.35;;;23.02;;
53521;SDS011;39398;48.382;9.802;2023-03-01T23:32:47;42.85;;;23.00;;
53521;SDS011;39398;48.382;9.802;2023-03-01T23:37:50;45.65;;;22.40;;
53521;SDS011;39398;48.382;9.802;2023-03-01T23:42:51;45.28;;;22.42;;
53521;SDS011;39398;48.382;9.802;2023-03-01T23:47:53;42.22;;;22.30;;
53521;SDS011;39398;48.382;9.802;2023-03-01T23:52:56;45.22;;;23.15;;
53521;SDS011;39398;48.382;9.802;2023-03-01T23:57:57;36.55;;;18.60;;
